sensor_id;sensor_type;location;lat;lon;timestamp;P1;durP1;ratioP1;P2;durP2;ratioP2
24261;SDS011;12385;51.412;5.540;2022-09-30T18:01:26;5.15;;;1.77;;
24261;SDS011;12385;51.412;5.540;2022-09-30T18:03:56;3.08;;;1.50;;
24261;SDS011;12385;51.412;5.540;2022-09-30T18:06:23;6.70;;;2.00;;
24261;SDS011;12385;51.412;5.540;2022-09-30T18:08:50;2.35;;;1.60;;
24261;SDS011;12385;51.412;5.540;2022-09-30T18:11:23;3.22;;;1.60;;
24261;SDS011;12385;51.412;5.540;2022-09-30T18:13:51;2.65;;;1.70;;
24261;SDS011;12385;51.412;5.540;2022-09-30T18:16:19;4.38;;;1.70;;
24261;SDS011;12385;51.412;5.540;2022-09-30T18:18:44;6.30;;;1.67;;
24261;SDS011;12385;51.412;5.540;2022-09-30T18:21:11;4.88;;;1.52;;
24261;SDS011;12385;51.412;5.540;2022-09-30T18:23:37;6.25;;;1.80;;
24261;SDS011;12385;51.412;5.540;2022-09-30T18:26:02;2.85;;;1.60;;
24261;SDS011;12385;51.412;5.540;2022-09-30T18:28:36;1.75;;;1.50;;
24261;SDS011;12385;51.412;5.540;2022-09-30T18:31:05;3.70;;;1.80;;
24261;SDS011;12385;51.412;5.540;2022-09-30T18:33:32;5.90;;;1.60;;
24261;SDS011;12385;51.412;5.540;2022-09-30T18:36:10;2.55;;;1.60;;
24261;SDS011;12385;51.412;5.540;2022-09-30T18:38:35;3.22;;;1.70;;
24261;SDS011;12385;51.412;5.540;2022-09-30T18:41:04;4.10;;;1.90;;
24261;SDS011;12385;51.412;5.540;2022-09-30T18:45:56;2.13;;;1.60;;
24261;SDS011;12385;51.412;5.540;2022-09-30T18:48:24;4.38;;;1.95;;
24261;SDS011;12385;51.412;5.540;2022-09-30T18:50:53;4.75;;;1.92;;
24261;SDS011;12385;51.412;5.540;2022-09-30T18:53:25;5.28;;;2.00;;
24261;SDS011;12385;51.412;5.540;2022-09-30T18:55:52;3.72;;;2.00;;
24261;SDS011;12385;51.412;5.540;2022-09-30T18:58:18;3.55;;;2.00;;
24261;SDS011;12385;51.412;5.540;2022-09-30T19:00:43;3.60;;;2.30;;
24261;SDS011;12385;51.412;5.540;2022-09-30T19:03:09;4.93;;;2.08;;
24261;SDS011;12385;51.412;5.540;2022-09-30T19:05:38;6.68;;;2.22;;
24261;SDS011;12385;51.412;5.540;2022-09-30T19:08:08;3.25;;;2.20;;
24261;SDS011;12385;51.412;5.540;2022-09-30T19:10:39;6.38;;;2.35;;
24261;SDS011;12385;51.412;5.540;2022-09-30T19:13:06;4.30;;;2.00;;
24261;SDS011;12385;51.412;5.540;2022-09-30T19:15:32;7.65;;;2.00;;
24261;SDS011;12385;51.412;5.540;2022-09-30T19:18:01;4.88;;;2.65;;
24261;SDS011;12385;51.412;5.540;2022-09-30T19:20:27;5.10;;;2.00;;
24261;SDS011;12385;51.412;5.540;2022-09-30T19:22:53;6.53;;;2.05;;
24261;SDS011;12385;51.412;5.540;2022-09-30T19:25:19;2.50;;;1.70;;
24261;SDS011;12385;51.412;5.540;2022-09-30T19:27:48;3.72;;;1.67;;
24261;SDS011;12385;51.412;5.540;2022-09-30T19:30:20;3.30;;;1.58;;
24261;SDS011;12385;51.412;5.540;2022-09-30T19:32:47;2.17;;;1.60;;
24261;SDS011;12385;51.412;5.540;2022-09-30T19:35:13;6.55;;;1.85;;
24261;SDS011;12385;51.412;5.540;2022-09-30T19:37:41;3.33;;;1.55;;
24261;SDS011;12385;51.412;5.540;2022-09-30T19:40:08;2.95;;;1.60;;
24261;SDS011;12385;51.412;5.540;2022-09-30T19:42:34;4.32;;;1.75;;
24261;SDS011;12385;51.412;5.540;2022-09-30T19:45:04;3.30;;;1.65;;
24261;SDS011;12385;51.412;5.540;2022-09-30T19:47:30;3.28;;;1.63;;
24261;SDS011;12385;51.412;5.540;2022-09-30T19:49:56;3.25;;;1.63;;
24261;SDS011;12385;51.412;5.540;2022-09-30T19:52:30;3.38;;;1.73;;
24261;SDS011;12385;51.412;5.540;2022-09-30T19:54:58;3.35;;;1.90;;
24261;SDS011;12385;51.412;5.540;2022-09-30T19:57:24;3.88;;;1.98;;
24261;SDS011;12385;51.412;5.540;2022-09-30T19:59:50;3.20;;;1.77;;
24261;SDS011;12385;51.412;5.540;2022-09-30T20:02:16;4.97;;;1.80;;
24261;SDS011;12385;51.412;5.540;2022-09-30T20:04:43;5.80;;;1.80;;
24261;SDS011;12385;51.412;5.540;2022-09-30T20:07:10;2.40;;;1.80;;
24261;SDS011;12385;51.412;5.540;2022-09-30T20:09:36;3.63;;;2.30;;
24261;SDS011;12385;51.412;5.540;2022-09-30T20:12:02;3.88;;;2.00;;
24261;SDS011;12385;51.412;5.540;2022-09-30T20:14:27;3.53;;;2.17;;
24261;SDS011;12385;51.412;5.540;2022-09-30T20:17:12;8.70;;;1.85;;
24261;SDS011;12385;51.412;5.540;2022-09-30T20:19:38;7.85;;;2.05;;
24261;SDS011;12385;51.412;5.540;2022-09-30T20:22:04;4.03;;;1.90;;
24261;SDS011;12385;51.412;5.540;2022-09-30T20:24:30;7.35;;;2.05;;
24261;SDS011;12385;51.412;5.540;2022-09-30T20:26:56;2.45;;;1.80;;
24261;SDS011;12385;51.412;5.540;2022-09-30T20:29:21;2.47;;;1.88;;
24261;SDS011;12385;51.412;5.540;2022-09-30T20:31:47;2.85;;;2.10;;
24261;SDS011;12385;51.412;5.540;2022-09-30T20:34:14;6.70;;;2.30;;
24261;SDS011;12385;51.412;5.540;2022-09-30T20:36:42;7.55;;;1.98;;
24261;SDS011;12385;51.412;5.540;2022-09-30T20:39:09;3.63;;;2.20;;
24261;SDS011;12385;51.412;5.540;2022-09-30T20:41:36;6.13;;;2.25;;
24261;SDS011;12385;51.412;5.540;2022-09-30T20:44:04;6.07;;;2.38;;
24261;SDS011;12385;51.412;5.540;2022-09-30T20:46:32;5.13;;;2.28;;
24261;SDS011;12385;51.412;5.540;2022-09-30T20:48:59;3.80;;;2.55;;
24261;SDS011;12385;51.412;5.540;2022-09-30T20:51:27;5.97;;;2.60;;
24261;SDS011;12385;51.412;5.540;2022-09-30T20:53:54;6.65;;;2.20;;
24261;SDS011;12385;51.412;5.540;2022-09-30T20:56:21;5.40;;;2.70;;
24261;SDS011;12385;51.412;5.540;2022-09-30T20:58:48;6.75;;;2.50;;
24261;SDS011;12385;51.412;5.540;2022-09-30T21:01:16;2.80;;;2.20;;
24261;SDS011;12385;51.412;5.540;2022-09-30T21:03:44;3.90;;;2.67;;
24261;SDS011;12385;51.412;5.540;2022-09-30T21:06:14;5.25;;;2.70;;
24261;SDS011;12385;51.412;5.540;2022-09-30T21:08:45;3.67;;;2.75;;
24261;SDS011;12385;51.412;5.540;2022-09-30T21:11:11;3.58;;;2.67;;
24261;SDS011;12385;51.412;5.540;2022-09-30T21:13:41;5.35;;;2.58;;
24261;SDS011;12385;51.412;5.540;2022-09-30T21:16:08;4.70;;;2.67;;
24261;SDS011;12385;51.412;5.540;2022-09-30T21:18:35;3.75;;;2.67;;
24261;SDS011;12385;51.412;5.540;2022-09-30T21:21:01;4.65;;;2.70;;
24261;SDS011;12385;51.412;5.540;2022-09-30T21:23:28;4.88;;;2.75;;
24261;SDS011;12385;51.412;5.540;2022-09-30T21:26:05;5.88;;;2.95;;
24261;SDS011;12385;51.412;5.540;2022-09-30T21:28:33;5.40;;;2.80;;
24261;SDS011;12385;51.412;5.540;2022-09-30T21:31:04;5.45;;;2.90;;
24261;SDS011;12385;51.412;5.540;2022-09-30T21:33:32;6.57;;;2.92;;
24261;SDS011;12385;51.412;5.540;2022-09-30T21:35:58;6.20;;;2.95;;
24261;SDS011;12385;51.412;5.540;2022-09-30T21:38:26;4.78;;;2.78;;
24261;SDS011;12385;51.412;5.540;2022-09-30T21:40:59;2.80;;;2.50;;
24261;SDS011;12385;51.412;5.540;2022-09-30T21:43:27;3.72;;;2.42;;
24261;SDS011;12385;51.412;5.540;2022-09-30T21:46:00;5.25;;;2.72;;
24261;SDS011;12385;51.412;5.540;2022-09-30T21:48:32;4.63;;;2.60;;
24261;SDS011;12385;51.412;5.540;2022-09-30T21:50:58;5.75;;;2.58;;
24261;SDS011;12385;51.412;5.540;2022-09-30T21:53:25;5.05;;;2.72;;
24261;SDS011;12385;51.412;5.540;2022-09-30T21:55:56;5.85;;;2.45;;
24261;SDS011;12385;51.412;5.540;2022-09-30T21:58:23;4.80;;;2.45;;
24261;SDS011;12385;51.412;5.540;2022-09-30T22:00:50;3.83;;;2.78;;
24261;SDS011;12385;51.412;5.540;2022-09-30T22:03:20;4.50;;;2.78;;
24261;SDS011;12385;51.412;5.540;2022-09-30T22:08:19;5.15;;;2.50;;
24261;SDS011;12385;51.412;5.540;2022-09-30T22:10:45;4.80;;;2.53;;
24261;SDS011;12385;51.412;5.540;2022-09-30T22:13:12;8.48;;;2.80;;
24261;SDS011;12385;51.412;5.540;2022-09-30T22:15:39;5.15;;;2.90;;
24261;SDS011;12385;51.412;5.540;2022-09-30T22:18:09;7.55;;;2.80;;
24261;SDS011;12385;51.412;5.540;2022-09-30T22:20:43;4.65;;;3.10;;
24261;SDS011;12385;51.412;5.540;2022-09-30T22:23:10;4.78;;;3.00;;
24261;SDS011;12385;51.412;5.540;2022-09-30T22:25:37;5.85;;;3.10;;
24261;SDS011;12385;51.412;5.540;2022-09-30T22:28:03;5.28;;;3.10;;
24261;SDS011;12385;51.412;5.540;2022-09-30T22:30:29;7.55;;;3.20;;
24261;SDS011;12385;51.412;5.540;2022-09-30T22:32:56;4.57;;;3.03;;
24261;SDS011;12385;51.412;5.540;2022-09-30T22:35:40;4.53;;;3.50;;
24261;SDS011;12385;51.412;5.540;2022-09-30T22:38:24;4.70;;;3.58;;
24261;SDS011;12385;51.412;5.540;2022-09-30T22:40:52;6.85;;;3.80;;
24261;SDS011;12385;51.412;5.540;2022-09-30T22:43:19;8.43;;;4.10;;
24261;SDS011;12385;51.412;5.540;2022-09-30T22:46:01;6.40;;;4.10;;
24261;SDS011;12385;51.412;5.540;2022-09-30T22:48:29;8.32;;;4.30;;
24261;SDS011;12385;51.412;5.540;2022-09-30T22:50:55;6.53;;;4.47;;
24261;SDS011;12385;51.412;5.540;2022-09-30T22:53:22;5.38;;;4.20;;
24261;SDS011;12385;51.412;5.540;2022-09-30T22:55:49;10.20;;;4.70;;
24261;SDS011;12385;51.412;5.540;2022-09-30T22:58:16;5.70;;;4.60;;
24261;SDS011;12385;51.412;5.540;2022-09-30T23:00:55;7.75;;;4.72;;
24261;SDS011;12385;51.412;5.540;2022-09-30T23:03:23;8.20;;;4.78;;
24261;SDS011;12385;51.412;5.540;2022-09-30T23:05:49;7.60;;;4.90;;
24261;SDS011;12385;51.412;5.540;2022-09-30T23:08:16;7.22;;;5.35;;
24261;SDS011;12385;51.412;5.540;2022-09-30T23:10:46;7.28;;;5.07;;
24261;SDS011;12385;51.412;5.540;2022-09-30T23:13:16;8.20;;;5.13;;
24261;SDS011;12385;51.412;5.540;2022-09-30T23:15:44;7.07;;;5.15;;
24261;SDS011;12385;51.412;5.540;2022-09-30T23:18:13;10.25;;;5.47;;
24261;SDS011;12385;51.412;5.540;2022-09-30T23:20:41;6.72;;;4.97;;
24261;SDS011;12385;51.412;5.540;2022-09-30T23:23:07;9.35;;;5.07;;
24261;SDS011;12385;51.412;5.540;2022-09-30T23:25:32;8.02;;;4.93;;
24261;SDS011;12385;51.412;5.540;2022-09-30T23:27:58;8.07;;;5.60;;
24261;SDS011;12385;51.412;5.540;2022-09-30T23:30:24;8.07;;;5.40;;
24261;SDS011;12385;51.412;5.540;2022-09-30T23:32:50;7.95;;;6.22;;
24261;SDS011;12385;51.412;5.540;2022-09-30T23:35:16;10.27;;;6.40;;
24261;SDS011;12385;51.412;5.540;2022-09-30T23:37:41;9.85;;;6.05;;
24261;SDS011;12385;51.412;5.540;2022-09-30T23:40:08;9.07;;;6.00;;
24261;SDS011;12385;51.412;5.540;2022-09-30T23:42:34;7.70;;;6.28;;
24261;SDS011;12385;51.412;5.540;2022-09-30T23:44:59;8.13;;;6.03;;
24261;SDS011;12385;51.412;5.540;2022-09-30T23:47:25;12.27;;;6.28;;
24261;SDS011;12385;51.412;5.540;2022-09-30T23:49:51;9.02;;;6.35;;
24261;SDS011;12385;51.412;5.540;2022-09-30T23:52:19;10.25;;;6.50;;
24261;SDS011;12385;51.412;5.540;2022-09-30T23:54:45;7.80;;;6.05;;
24261;SDS011;12385;51.412;5.540;2022-09-30T23:57:10;10.23;;;6.43;;
24261;SDS011;12385;51.412;5.540;2022-09-30T23:59:36;9.63;;;6.22;;
